sensor_id;sensor_type;location;lat;lon;timestamp;pressure;altitude;pressure_sealevel;temperature;humidity
21574;BME280;10948;48.706;9.258;2022-08-25T00:02:08;97826.47;;;19.69;100.00
21574;BME280;10948;48.706;9.258;2022-08-25T00:04:35;97825.16;;;19.82;100.00
21574;BME280;10948;48.706;9.258;2022-08-25T00:07:01;97823.00;;;19.95;100.00
21574;BME280;10948;48.706;9.258;2022-08-25T00:09:26;97822.75;;;19.89;99.14
21574;BME280;10948;48.706;9.258;2022-08-25T00:11:51;97826.72;;;20.02;99.08
21574;BME280;10948;48.706;9.258;2022-08-25T00:14:19;97830.84;;;19.87;99.30
21574;BME280;10948;48.706;9.258;2022-08-25T00:16:44;97826.00;;;19.46;100.00
21574;BME280;10948;48.706;9.258;2022-08-25T00:19:12;97831.53;;;19.62;100.00
21574;BME280;10948;48.706;9.258;2022-08-25T00:21:39;97830.69;;;19.62;100.00
21574;BME280;10948;48.706;9.258;2022-08-25T00:24:05;97826.34;;;19.70;100.00
21574;BME280;10948;48.706;9.258;2022-08-25T00:26:30;97820.97;;;19.62;100.00
21574;BME280;10948;48.706;9.258;2022-08-25T00:28:55;97822.22;;;19.85;98.92
21574;BME280;10948;48.706;9.258;2022-08-25T00:31:21;97825.56;;;19.87;98.86
21574;BME280;10948;48.706;9.258;2022-08-25T00:33:47;97828.19;;;19.60;100.00
21574;BME280;10948;48.706;9.258;2022-08-25T00:36:13;97818.38;;;19.80;100.00
21574;BME280;10948;48.706;9.258;2022-08-25T00:38:39;97824.69;;;19.33;100.00
21574;BME280;10948;48.706;9.258;2022-08-25T00:41:05;97822.03;;;19.69;100.00
21574;BME280;10948;48.706;9.258;2022-08-25T00:45:59;97819.78;;;19.47;100.00
21574;BME280;10948;48.706;9.258;2022-08-25T00:48:25;97826.41;;;19.51;100.00
21574;BME280;10948;48.706;9.258;2022-08-25T00:50:50;97825.59;;;18.95;100.00
21574;BME280;10948;48.706;9.258;2022-08-25T00:53:15;97829.06;;;19.51;100.00
21574;BME280;10948;48.706;9.258;2022-08-25T00:55:40;97817.72;;;19.41;100.00
21574;BME280;10948;48.706;9.258;2022-08-25T00:58:15;97819.06;;;19.45;100.00
21574;BME280;10948;48.706;9.258;2022-08-25T01:00:44;97813.59;;;19.29;100.00
21574;BME280;10948;48.706;9.258;2022-08-25T01:03:10;97808.59;;;19.26;100.00
21574;BME280;10948;48.706;9.258;2022-08-25T01:05:35;97805.72;;;19.20;100.00
21574;BME280;10948;48.706;9.258;2022-08-25T01:08:01;97809.13;;;18.84;100.00
21574;BME280;10948;48.706;9.258;2022-08-25T01:10:27;97805.28;;;19.05;100.00
21574;BME280;10948;48.706;9.258;2022-08-25T01:12:53;97808.03;;;19.23;100.00
21574;BME280;10948;48.706;9.258;2022-08-25T01:15:22;97798.31;;;19.14;100.00
21574;BME280;10948;48.706;9.258;2022-08-25T01:17:52;97796.88;;;18.83;100.00
21574;BME280;10948;48.706;9.258;2022-08-25T01:20:19;97803.31;;;19.26;100.00
21574;BME280;10948;48.706;9.258;2022-08-25T01:22:45;97795.94;;;18.84;100.00
21574;BME280;10948;48.706;9.258;2022-08-25T01:25:19;97801.22;;;18.74;100.00
21574;BME280;10948;48.706;9.258;2022-08-25T01:27:48;97804.75;;;18.92;100.00
21574;BME280;10948;48.706;9.258;2022-08-25T01:30:14;97800.00;;;19.05;100.00
21574;BME280;10948;48.706;9.258;2022-08-25T01:32:39;97811.66;;;18.57;100.00
21574;BME280;10948;48.706;9.258;2022-08-25T01:35:04;97805.63;;;18.83;100.00
21574;BME280;10948;48.706;9.258;2022-08-25T01:37:30;97805.56;;;19.21;100.00
21574;BME280;10948;48.706;9.258;2022-08-25T01:39:58;97811.69;;;18.93;100.00
21574;BME280;10948;48.706;9.258;2022-08-25T01:45:07;97811.19;;;18.80;100.00
21574;BME280;10948;48.706;9.258;2022-08-25T01:47:34;97804.19;;;18.98;100.00
21574;BME280;10948;48.706;9.258;2022-08-25T01:49:59;97799.19;;;19.14;100.00
21574;BME280;10948;48.706;9.258;2022-08-25T01:52:28;97802.97;;;18.93;100.00
21574;BME280;10948;48.706;9.258;2022-08-25T01:54:56;97801.22;;;18.74;100.00
21574;BME280;10948;48.706;9.258;2022-08-25T01:57:21;97807.31;;;18.75;100.00
21574;BME280;10948;48.706;9.258;2022-08-25T01:59:46;97807.59;;;18.81;100.00
21574;BME280;10948;48.706;9.258;2022-08-25T02:02:12;97807.59;;;18.62;100.00
21574;BME280;10948;48.706;9.258;2022-08-25T02:04:37;97798.56;;;18.74;100.00
21574;BME280;10948;48.706;9.258;2022-08-25T02:07:04;97798.72;;;18.63;100.00
21574;BME280;10948;48.706;9.258;2022-08-25T02:09:30;97804.22;;;18.89;100.00
21574;BME280;10948;48.706;9.258;2022-08-25T02:11:55;97808.13;;;18.94;100.00
21574;BME280;10948;48.706;9.258;2022-08-25T02:14:20;97802.94;;;19.02;100.00
21574;BME280;10948;48.706;9.258;2022-08-25T02:16:47;97797.88;;;18.53;100.00
21574;BME280;10948;48.706;9.258;2022-08-25T02:19:14;97807.59;;;18.62;100.00
21574;BME280;10948;48.706;9.258;2022-08-25T02:21:40;97806.75;;;18.52;100.00
21574;BME280;10948;48.706;9.258;2022-08-25T02:24:06;97798.47;;;18.47;100.00
21574;BME280;10948;48.706;9.258;2022-08-25T02:26:32;97808.56;;;18.80;100.00
21574;BME280;10948;48.706;9.258;2022-08-25T02:28:57;97805.94;;;18.71;100.00
21574;BME280;10948;48.706;9.258;2022-08-25T02:31:23;97799.84;;;18.51;100.00
21574;BME280;10948;48.706;9.258;2022-08-25T02:33:49;97799.03;;;18.60;100.00
21574;BME280;10948;48.706;9.258;2022-08-25T02:36:14;97806.19;;;18.30;100.00
21574;BME280;10948;48.706;9.258;2022-08-25T02:38:40;97803.44;;;18.50;100.00
21574;BME280;10948;48.706;9.258;2022-08-25T02:41:09;97804.84;;;18.45;100.00
21574;BME280;10948;48.706;9.258;2022-08-25T02:43:36;97788.44;;;18.22;100.00
21574;BME280;10948;48.706;9.258;2022-08-25T02:46:02;97796.22;;;18.14;100.00
21574;BME280;10948;48.706;9.258;2022-08-25T02:48:27;97805.34;;;18.10;100.00
21574;BME280;10948;48.706;9.258;2022-08-25T02:50:52;97805.06;;;18.23;100.00
21574;BME280;10948;48.706;9.258;2022-08-25T02:53:18;97797.63;;;18.47;100.00
21574;BME280;10948;48.706;9.258;2022-08-25T02:55:44;97794.56;;;18.32;100.00
21574;BME280;10948;48.706;9.258;2022-08-25T02:58:09;97802.03;;;18.08;100.00
21574;BME280;10948;48.706;9.258;2022-08-25T03:00:35;97798.84;;;18.52;100.00
21574;BME280;10948;48.706;9.258;2022-08-25T03:03:00;97801.88;;;18.29;100.00
21574;BME280;10948;48.706;9.258;2022-08-25T03:05:25;97796.66;;;18.38;100.00
21574;BME280;10948;48.706;9.258;2022-08-25T03:07:51;97802.03;;;18.08;100.00
21574;BME280;10948;48.706;9.258;2022-08-25T03:10:16;97800.50;;;18.15;100.00
21574;BME280;10948;48.706;9.258;2022-08-25T03:12:43;97797.03;;;18.05;100.00
21574;BME280;10948;48.706;9.258;2022-08-25T03:15:09;97794.53;;;18.13;100.00
21574;BME280;10948;48.706;9.258;2022-08-25T03:17:35;97792.75;;;18.23;100.00
21574;BME280;10948;48.706;9.258;2022-08-25T03:20:00;97797.16;;;17.94;100.00
21574;BME280;10948;48.706;9.258;2022-08-25T03:22:26;97800.63;;;18.04;100.00
21574;BME280;10948;48.706;9.258;2022-08-25T03:24:51;97794.81;;;18.01;100.00
21574;BME280;10948;48.706;9.258;2022-08-25T03:27:36;97793.41;;;18.06;100.00
21574;BME280;10948;48.706;9.258;2022-08-25T03:30:01;97801.53;;;17.35;100.00
21574;BME280;10948;48.706;9.258;2022-08-25T03:32:27;97797.53;;;17.90;100.00
21574;BME280;10948;48.706;9.258;2022-08-25T03:34:52;97799.81;;;18.04;100.00
21574;BME280;10948;48.706;9.258;2022-08-25T03:37:18;97802.44;;;18.13;100.00
21574;BME280;10948;48.706;9.258;2022-08-25T03:39:43;97800.63;;;17.95;100.00
21574;BME280;10948;48.706;9.258;2022-08-25T03:42:08;97796.41;;;17.73;100.00
21574;BME280;10948;48.706;9.258;2022-08-25T03:44:36;97799.50;;;17.88;100.00
21574;BME280;10948;48.706;9.258;2022-08-25T03:47:01;97803.94;;;17.87;100.00
21574;BME280;10948;48.706;9.258;2022-08-25T03:49:27;97797.34;;;17.63;100.00
21574;BME280;10948;48.706;9.258;2022-08-25T03:51:52;97798.03;;;17.55;100.00
21574;BME280;10948;48.706;9.258;2022-08-25T03:54:20;97794.50;;;17.85;100.00
21574;BME280;10948;48.706;9.258;2022-08-25T03:56:46;97793.16;;;18.09;100.00
21574;BME280;10948;48.706;9.258;2022-08-25T03:59:11;97786.78;;;18.12;100.00
21574;BME280;10948;48.706;9.258;2022-08-25T04:01:37;97780.09;;;17.89;100.00
21574;BME280;10948;48.706;9.258;2022-08-25T04:04:03;97784.53;;;17.88;100.00
21574;BME280;10948;48.706;9.258;2022-08-25T04:06:28;97787.03;;;18.09;100.00
21574;BME280;10948;48.706;9.258;2022-08-25T04:08:54;97784.13;;;18.02;100.00
21574;BME280;10948;48.706;9.258;2022-08-25T04:11:21;97781.75;;;17.90;100.00
21574;BME280;10948;48.706;9.258;2022-08-25T04:13:47;97786.66;;;18.04;100.00
21574;BME280;10948;48.706;9.258;2022-08-25T04:16:13;97781.38;;;17.94;100.00
21574;BME280;10948;48.706;9.258;2022-08-25T04:18:43;97776.50;;;17.99;100.00
21574;BME280;10948;48.706;9.258;2022-08-25T04:21:09;97786.19;;;17.80;100.00
21574;BME280;10948;48.706;9.258;2022-08-25T04:23:35;97782.56;;;17.81;100.00
21574;BME280;10948;48.706;9.258;2022-08-25T04:26:01;97786.22;;;17.50;100.00
21574;BME280;10948;48.706;9.258;2022-08-25T04:28:27;97793.53;;;17.76;100.00
21574;BME280;10948;48.706;9.258;2022-08-25T04:30:52;97798.69;;;17.87;100.00
21574;BME280;10948;48.706;9.258;2022-08-25T04:33:17;97793.41;;;17.87;100.00
21574;BME280;10948;48.706;9.258;2022-08-25T04:35:46;97795.25;;;17.57;100.00
21574;BME280;10948;48.706;9.258;2022-08-25T04:38:12;97793.34;;;17.59;100.00
21574;BME280;10948;48.706;9.258;2022-08-25T04:40:37;97791.03;;;17.84;100.00
21574;BME280;10948;48.706;9.258;2022-08-25T04:43:02;97794.78;;;17.91;100.00
21574;BME280;10948;48.706;9.258;2022-08-25T04:45:27;97800.94;;;18.39;100.00
21574;BME280;10948;48.706;9.258;2022-08-25T04:47:53;97794.53;;;19.35;100.00
21574;BME280;10948;48.706;9.258;2022-08-25T04:50:19;97799.41;;;18.75;100.00
21574;BME280;10948;48.706;9.258;2022-08-25T04:52:44;97794.72;;;19.24;100.00
21574;BME280;10948;48.706;9.258;2022-08-25T04:55:09;97794.13;;;20.11;94.68
21574;BME280;10948;48.706;9.258;2022-08-25T04:57:34;97791.94;;;20.24;88.10
21574;BME280;10948;48.706;9.258;2022-08-25T05:00:00;97794.75;;;20.40;91.29
21574;BME280;10948;48.706;9.258;2022-08-25T05:02:26;97792.72;;;21.79;80.91
21574;BME280;10948;48.706;9.258;2022-08-25T05:04:51;97797.44;;;21.68;78.16
21574;BME280;10948;48.706;9.258;2022-08-25T05:07:19;97795.69;;;22.82;72.58
21574;BME280;10948;48.706;9.258;2022-08-25T05:09:44;97799.25;;;23.45;69.91
21574;BME280;10948;48.706;9.258;2022-08-25T05:12:09;97792.78;;;23.47;67.88
21574;BME280;10948;48.706;9.258;2022-08-25T05:14:35;97798.69;;;23.57;68.63
21574;BME280;10948;48.706;9.258;2022-08-25T05:17:00;97788.69;;;24.36;64.19
21574;BME280;10948;48.706;9.258;2022-08-25T05:19:25;97776.75;;;24.01;66.79
21574;BME280;10948;48.706;9.258;2022-08-25T05:21:51;97774.06;;;23.71;68.34
21574;BME280;10948;48.706;9.258;2022-08-25T05:24:17;97774.41;;;24.59;65.09
21574;BME280;10948;48.706;9.258;2022-08-25T05:26:43;97774.69;;;23.43;67.37
21574;BME280;10948;48.706;9.258;2022-08-25T05:29:08;97777.94;;;22.58;72.65
21574;BME280;10948;48.706;9.258;2022-08-25T05:31:35;97775.38;;;23.29;70.06
21574;BME280;10948;48.706;9.258;2022-08-25T05:34:04;97774.53;;;23.36;69.39
21574;BME280;10948;48.706;9.258;2022-08-25T05:36:29;97777.06;;;23.68;69.10
21574;BME280;10948;48.706;9.258;2022-08-25T05:38:54;97776.75;;;24.01;67.58
21574;BME280;10948;48.706;9.258;2022-08-25T05:41:23;97775.94;;;24.01;67.28
21574;BME280;10948;48.706;9.258;2022-08-25T05:43:49;97778.09;;;23.67;68.62
21574;BME280;10948;48.706;9.258;2022-08-25T05:46:15;97775.03;;;23.78;70.28
21574;BME280;10948;48.706;9.258;2022-08-25T05:48:41;97770.91;;;24.59;67.10
21574;BME280;10948;48.706;9.258;2022-08-25T05:51:07;97782.25;;;24.53;67.04
21574;BME280;10948;48.706;9.258;2022-08-25T05:53:34;97758.41;;;24.59;68.07
21574;BME280;10948;48.706;9.258;2022-08-25T05:55:59;97763.00;;;24.20;67.99
21574;BME280;10948;48.706;9.258;2022-08-25T05:58:25;97750.19;;;24.69;67.02
21574;BME280;10948;48.706;9.258;2022-08-25T06:00:52;97754.69;;;25.20;64.73
21574;BME280;10948;48.706;9.258;2022-08-25T06:03:17;97754.25;;;25.31;65.13
21574;BME280;10948;48.706;9.258;2022-08-25T06:05:43;97747.81;;;26.40;61.01
21574;BME280;10948;48.706;9.258;2022-08-25T06:08:08;97755.53;;;26.14;62.20
21574;BME280;10948;48.706;9.258;2022-08-25T06:10:35;97750.34;;;26.27;60.90
21574;BME280;10948;48.706;9.258;2022-08-25T06:13:01;97752.13;;;26.41;61.00
21574;BME280;10948;48.706;9.258;2022-08-25T06:15:26;97761.56;;;27.34;59.00
21574;BME280;10948;48.706;9.258;2022-08-25T06:17:52;97757.16;;;27.60;59.59
21574;BME280;10948;48.706;9.258;2022-08-25T06:20:19;97762.66;;;27.46;59.26
21574;BME280;10948;48.706;9.258;2022-08-25T06:22:45;97759.59;;;28.49;57.20
21574;BME280;10948;48.706;9.258;2022-08-25T06:25:11;97757.16;;;29.26;54.82
21574;BME280;10948;48.706;9.258;2022-08-25T06:27:37;97763.13;;;30.11;52.95
21574;BME280;10948;48.706;9.258;2022-08-25T06:30:06;97759.03;;;33.38;45.97
21574;BME280;10948;48.706;9.258;2022-08-25T06:32:32;97760.22;;;33.42;44.93
21574;BME280;10948;48.706;9.258;2022-08-25T06:34:59;97760.03;;;34.62;42.91
21574;BME280;10948;48.706;9.258;2022-08-25T06:37:25;97758.66;;;34.48;42.50
21574;BME280;10948;48.706;9.258;2022-08-25T06:39:50;97762.38;;;33.11;45.29
21574;BME280;10948;48.706;9.258;2022-08-25T06:42:16;97756.22;;;30.59;50.17
21574;BME280;10948;48.706;9.258;2022-08-25T06:44:41;97765.59;;;29.10;53.07
21574;BME280;10948;48.706;9.258;2022-08-25T06:47:06;97757.94;;;30.47;51.46
21574;BME280;10948;48.706;9.258;2022-08-25T06:49:32;97759.47;;;30.30;51.68
21574;BME280;10948;48.706;9.258;2022-08-25T06:51:57;97766.00;;;27.95;58.04
21574;BME280;10948;48.706;9.258;2022-08-25T06:54:22;97760.19;;;29.62;54.00
21574;BME280;10948;48.706;9.258;2022-08-25T06:56:48;97749.28;;;29.57;54.31
21574;BME280;10948;48.706;9.258;2022-08-25T06:59:13;97761.38;;;30.23;52.26
21574;BME280;10948;48.706;9.258;2022-08-25T07:01:38;97751.03;;;31.13;50.11
21574;BME280;10948;48.706;9.258;2022-08-25T07:04:04;97744.22;;;33.52;45.78
21574;BME280;10948;48.706;9.258;2022-08-25T07:06:31;97747.38;;;35.29;42.74
21574;BME280;10948;48.706;9.258;2022-08-25T07:08:56;97745.81;;;37.20;40.55
21574;BME280;10948;48.706;9.258;2022-08-25T07:11:22;97757.47;;;36.14;40.48
21574;BME280;10948;48.706;9.258;2022-08-25T07:13:47;97753.56;;;34.24;42.97
21574;BME280;10948;48.706;9.258;2022-08-25T07:16:13;97747.66;;;37.51;38.54
21574;BME280;10948;48.706;9.258;2022-08-25T07:18:39;97747.03;;;37.02;39.94
21574;BME280;10948;48.706;9.258;2022-08-25T07:21:04;97750.78;;;40.59;35.07
21574;BME280;10948;48.706;9.258;2022-08-25T07:23:30;97747.81;;;37.29;37.37
21574;BME280;10948;48.706;9.258;2022-08-25T07:25:55;97748.63;;;40.51;34.37
21574;BME280;10948;48.706;9.258;2022-08-25T07:28:21;97754.25;;;35.20;38.79
21574;BME280;10948;48.706;9.258;2022-08-25T07:30:46;97743.03;;;37.51;39.28
21574;BME280;10948;48.706;9.258;2022-08-25T07:33:12;97730.53;;;35.43;41.43
21574;BME280;10948;48.706;9.258;2022-08-25T07:35:37;97739.03;;;38.20;37.59
21574;BME280;10948;48.706;9.258;2022-08-25T07:38:04;97724.28;;;42.07;32.42
21574;BME280;10948;48.706;9.258;2022-08-25T07:40:33;97731.97;;;41.81;32.97
21574;BME280;10948;48.706;9.258;2022-08-25T07:42:59;97740.13;;;41.58;32.53
21574;BME280;10948;48.706;9.258;2022-08-25T07:45:27;97745.47;;;35.67;38.98
21574;BME280;10948;48.706;9.258;2022-08-25T07:47:59;97744.53;;;36.16;39.36
21574;BME280;10948;48.706;9.258;2022-08-25T07:50:25;97744.66;;;42.19;32.68
21574;BME280;10948;48.706;9.258;2022-08-25T07:52:51;97746.66;;;38.13;36.52
21574;BME280;10948;48.706;9.258;2022-08-25T07:55:16;97752.47;;;37.02;37.53
21574;BME280;10948;48.706;9.258;2022-08-25T07:57:41;97747.50;;;46.01;29.01
21574;BME280;10948;48.706;9.258;2022-08-25T08:00:08;97757.50;;;45.14;28.79
21574;BME280;10948;48.706;9.258;2022-08-25T08:02:36;97741.91;;;42.19;32.12
21574;BME280;10948;48.706;9.258;2022-08-25T08:05:01;97745.66;;;40.86;32.37
21574;BME280;10948;48.706;9.258;2022-08-25T08:07:26;97743.44;;;39.91;34.07
21574;BME280;10948;48.706;9.258;2022-08-25T08:09:53;97734.63;;;44.34;29.97
21574;BME280;10948;48.706;9.258;2022-08-25T08:12:19;97749.75;;;37.02;36.66
21574;BME280;10948;48.706;9.258;2022-08-25T08:14:45;97749.44;;;39.93;33.22
21574;BME280;10948;48.706;9.258;2022-08-25T08:17:11;97739.28;;;48.00;27.18
21574;BME280;10948;48.706;9.258;2022-08-25T08:19:36;97744.72;;;49.07;25.50
21574;BME280;10948;48.706;9.258;2022-08-25T08:22:02;97735.25;;;51.52;24.53
21574;BME280;10948;48.706;9.258;2022-08-25T08:24:29;97742.38;;;37.76;35.34
21574;BME280;10948;48.706;9.258;2022-08-25T08:26:54;97733.81;;;42.70;30.91
21574;BME280;10948;48.706;9.258;2022-08-25T08:29:19;97736.63;;;44.91;29.59
21574;BME280;10948;48.706;9.258;2022-08-25T08:31:46;97747.50;;;52.78;22.78
21574;BME280;10948;48.706;9.258;2022-08-25T08:34:12;97735.97;;;41.65;31.07
21574;BME280;10948;48.706;9.258;2022-08-25T08:36:37;97741.47;;;41.32;31.75
21574;BME280;10948;48.706;9.258;2022-08-25T08:39:02;97739.44;;;50.03;25.35
21574;BME280;10948;48.706;9.258;2022-08-25T08:44:35;97722.72;;;46.18;27.68
21574;BME280;10948;48.706;9.258;2022-08-25T08:52:11;97719.81;;;42.11;30.41
21574;BME280;10948;48.706;9.258;2022-08-25T08:54:38;97718.75;;;47.00;27.14
21574;BME280;10948;48.706;9.258;2022-08-25T08:57:12;97725.88;;;38.94;34.55
21574;BME280;10948;48.706;9.258;2022-08-25T09:00:03;97714.84;;;43.83;30.81
21574;BME280;10948;48.706;9.258;2022-08-25T09:02:28;97712.06;;;41.19;33.36
21574;BME280;10948;48.706;9.258;2022-08-25T09:04:58;97715.06;;;36.03;39.41
21574;BME280;10948;48.706;9.258;2022-08-25T09:07:38;97698.31;;;38.40;36.92
21574;BME280;10948;48.706;9.258;2022-08-25T09:10:05;97700.28;;;40.08;34.85
21574;BME280;10948;48.706;9.258;2022-08-25T09:15:06;97692.94;;;38.95;36.19
21574;BME280;10948;48.706;9.258;2022-08-25T09:28:21;97690.50;;;36.63;37.82
21574;BME280;10948;48.706;9.258;2022-08-25T09:31:03;97697.28;;;36.65;39.06
21574;BME280;10948;48.706;9.258;2022-08-25T09:33:30;97682.72;;;34.83;42.40
21574;BME280;10948;48.706;9.258;2022-08-25T09:35:55;97686.88;;;37.20;37.95
21574;BME280;10948;48.706;9.258;2022-08-25T09:38:21;97685.66;;;34.98;42.79
21574;BME280;10948;48.706;9.258;2022-08-25T09:40:49;97693.44;;;36.08;40.08
21574;BME280;10948;48.706;9.258;2022-08-25T09:46:00;97691.66;;;34.22;41.35
21574;BME280;10948;48.706;9.258;2022-08-25T09:48:27;97683.53;;;38.11;36.76
21574;BME280;10948;48.706;9.258;2022-08-25T09:50:57;97689.94;;;35.27;41.07
21574;BME280;10948;48.706;9.258;2022-08-25T09:53:24;97684.50;;;33.88;41.23
21574;BME280;10948;48.706;9.258;2022-08-25T09:56:03;97672.25;;;37.73;37.90
21574;BME280;10948;48.706;9.258;2022-08-25T09:58:30;97676.84;;;40.02;35.06
21574;BME280;10948;48.706;9.258;2022-08-25T10:00:59;97680.47;;;34.02;40.55
21574;BME280;10948;48.706;9.258;2022-08-25T10:03:25;97670.38;;;37.93;36.95
21574;BME280;10948;48.706;9.258;2022-08-25T10:10:54;97673.28;;;37.15;36.30
21574;BME280;10948;48.706;9.258;2022-08-25T10:13:22;97677.94;;;33.84;40.12
21574;BME280;10948;48.706;9.258;2022-08-25T10:16:04;97661.88;;;38.81;35.29
21574;BME280;10948;48.706;9.258;2022-08-25T10:18:30;97649.59;;;39.09;35.22
21574;BME280;10948;48.706;9.258;2022-08-25T10:21:14;97657.13;;;35.23;39.46
21574;BME280;10948;48.706;9.258;2022-08-25T10:23:43;97652.31;;;39.92;34.53
21574;BME280;10948;48.706;9.258;2022-08-25T10:26:22;97647.31;;;37.39;36.25
21574;BME280;10948;48.706;9.258;2022-08-25T10:36:16;97630.25;;;38.35;35.30
21574;BME280;10948;48.706;9.258;2022-08-25T10:38:45;97626.28;;;41.43;31.99
21574;BME280;10948;48.706;9.258;2022-08-25T11:02:01;97598.50;;;36.61;37.61
21574;BME280;10948;48.706;9.258;2022-08-25T11:07:02;97598.13;;;35.68;39.06
21574;BME280;10948;48.706;9.258;2022-08-25T11:09:32;97595.34;;;37.82;36.79
21574;BME280;10948;48.706;9.258;2022-08-25T11:12:07;97599.63;;;36.70;36.86
21574;BME280;10948;48.706;9.258;2022-08-25T11:14:42;97595.97;;;38.84;34.00
21574;BME280;10948;48.706;9.258;2022-08-25T11:17:12;97596.22;;;39.81;33.54
21574;BME280;10948;48.706;9.258;2022-08-25T11:19:46;97597.56;;;40.89;33.27
21574;BME280;10948;48.706;9.258;2022-08-25T11:22:19;97594.25;;;39.23;34.35
21574;BME280;10948;48.706;9.258;2022-08-25T11:27:32;97582.31;;;37.23;36.41
21574;BME280;10948;48.706;9.258;2022-08-25T11:30:05;97587.97;;;34.00;40.29
21574;BME280;10948;48.706;9.258;2022-08-25T11:32:31;97577.72;;;38.05;35.75
21574;BME280;10948;48.706;9.258;2022-08-25T11:35:07;97569.66;;;36.55;37.23
21574;BME280;10948;48.706;9.258;2022-08-25T11:37:33;97572.41;;;37.53;36.89
21574;BME280;10948;48.706;9.258;2022-08-25T11:53:41;97561.53;;;36.55;36.74
21574;BME280;10948;48.706;9.258;2022-08-25T11:56:08;97567.91;;;33.68;40.61
21574;BME280;10948;48.706;9.258;2022-08-25T11:58:45;97557.84;;;37.94;35.48
21574;BME280;10948;48.706;9.258;2022-08-25T12:04:10;97562.56;;;39.42;34.26
21574;BME280;10948;48.706;9.258;2022-08-25T12:07:14;97562.69;;;36.64;37.32
21574;BME280;10948;48.706;9.258;2022-08-25T12:09:23;97562.47;;;38.04;35.88
21574;BME280;10948;48.706;9.258;2022-08-25T12:11:52;97560.19;;;34.87;40.17
21574;BME280;10948;48.706;9.258;2022-08-25T12:37:53;97536.41;;;35.75;36.52
21574;BME280;10948;48.706;9.258;2022-08-25T12:40:26;97538.31;;;36.06;36.72
21574;BME280;10948;48.706;9.258;2022-08-25T12:42:59;97541.03;;;33.45;40.27
21574;BME280;10948;48.706;9.258;2022-08-25T12:50:43;97532.75;;;33.35;40.92
21574;BME280;10948;48.706;9.258;2022-08-25T12:55:47;97517.69;;;37.25;35.83
21574;BME280;10948;48.706;9.258;2022-08-25T12:58:14;97528.09;;;34.74;39.59
21574;BME280;10948;48.706;9.258;2022-08-25T13:16:08;97514.09;;;35.95;38.10
21574;BME280;10948;48.706;9.258;2022-08-25T13:18:39;97519.31;;;36.38;38.06
21574;BME280;10948;48.706;9.258;2022-08-25T13:21:16;97507.22;;;37.73;36.91
21574;BME280;10948;48.706;9.258;2022-08-25T13:23:46;97507.13;;;34.48;38.53
21574;BME280;10948;48.706;9.258;2022-08-25T13:26:13;97505.28;;;36.46;37.08
21574;BME280;10948;48.706;9.258;2022-08-25T13:28:39;97493.06;;;34.84;39.38
21574;BME280;10948;48.706;9.258;2022-08-25T13:33:33;97489.88;;;32.99;42.32
21574;BME280;10948;48.706;9.258;2022-08-25T13:35:59;97501.44;;;34.12;41.57
21574;BME280;10948;48.706;9.258;2022-08-25T13:38:44;97490.47;;;34.94;40.71
21574;BME280;10948;48.706;9.258;2022-08-25T13:41:09;97490.53;;;35.42;39.21
21574;BME280;10948;48.706;9.258;2022-08-25T13:43:35;97476.38;;;35.88;38.62
21574;BME280;10948;48.706;9.258;2022-08-25T13:46:01;97485.69;;;35.01;39.53
21574;BME280;10948;48.706;9.258;2022-08-25T13:48:31;97490.84;;;34.81;39.41
21574;BME280;10948;48.706;9.258;2022-08-25T13:51:05;97495.78;;;32.04;42.47
21574;BME280;10948;48.706;9.258;2022-08-25T13:53:31;97477.91;;;34.12;40.03
21574;BME280;10948;48.706;9.258;2022-08-25T13:55:57;97479.66;;;34.94;38.46
21574;BME280;10948;48.706;9.258;2022-08-25T13:58:26;97476.41;;;33.27;39.76
21574;BME280;10948;48.706;9.258;2022-08-25T14:03:28;97474.66;;;33.77;41.20
21574;BME280;10948;48.706;9.258;2022-08-25T14:08:39;97466.41;;;31.51;43.35
21574;BME280;10948;48.706;9.258;2022-08-25T14:11:14;97469.81;;;32.44;42.18
21574;BME280;10948;48.706;9.258;2022-08-25T14:13:58;97467.31;;;31.97;43.50
21574;BME280;10948;48.706;9.258;2022-08-25T14:16:24;97463.53;;;33.29;41.54
21574;BME280;10948;48.706;9.258;2022-08-25T14:18:51;97469.06;;;32.60;42.12
21574;BME280;10948;48.706;9.258;2022-08-25T14:21:19;97459.47;;;31.95;42.83
21574;BME280;10948;48.706;9.258;2022-08-25T14:23:46;97466.13;;;31.41;43.76
21574;BME280;10948;48.706;9.258;2022-08-25T14:26:11;97460.44;;;32.24;41.64
21574;BME280;10948;48.706;9.258;2022-08-25T14:28:37;97460.06;;;32.32;41.78
21574;BME280;10948;48.706;9.258;2022-08-25T14:31:07;97457.75;;;32.24;42.48
21574;BME280;10948;48.706;9.258;2022-08-25T14:33:36;97461.50;;;32.23;42.06
21574;BME280;10948;48.706;9.258;2022-08-25T14:36:02;97455.38;;;33.01;41.57
21574;BME280;10948;48.706;9.258;2022-08-25T14:38:29;97450.78;;;32.62;42.28
21574;BME280;10948;48.706;9.258;2022-08-25T14:40:54;97447.06;;;32.17;43.11
21574;BME280;10948;48.706;9.258;2022-08-25T14:43:19;97451.06;;;32.49;43.04
21574;BME280;10948;48.706;9.258;2022-08-25T14:45:45;97443.38;;;32.81;41.96
21574;BME280;10948;48.706;9.258;2022-08-25T14:48:31;97442.25;;;33.21;41.86
21574;BME280;10948;48.706;9.258;2022-08-25T14:50:59;97439.56;;;31.44;43.87
21574;BME280;10948;48.706;9.258;2022-08-25T14:53:25;97432.75;;;33.02;42.58
21574;BME280;10948;48.706;9.258;2022-08-25T14:55:50;97441.03;;;32.84;41.63
21574;BME280;10948;48.706;9.258;2022-08-25T14:58:19;97442.25;;;32.19;42.85
21574;BME280;10948;48.706;9.258;2022-08-25T15:00:45;97445.63;;;30.81;45.13
21574;BME280;10948;48.706;9.258;2022-08-25T15:03:12;97440.56;;;30.73;45.61
21574;BME280;10948;48.706;9.258;2022-08-25T15:05:39;97435.34;;;30.78;45.07
21574;BME280;10948;48.706;9.258;2022-08-25T15:08:05;97438.75;;;30.13;45.74
21574;BME280;10948;48.706;9.258;2022-08-25T15:10:49;97432.28;;;30.74;45.64
21574;BME280;10948;48.706;9.258;2022-08-25T15:13:14;97429.97;;;30.24;46.09
21574;BME280;10948;48.706;9.258;2022-08-25T15:15:42;97424.47;;;31.02;44.38
21574;BME280;10948;48.706;9.258;2022-08-25T15:18:07;97428.25;;;30.65;45.81